Time;durP1;ratioP1;P1;durP2;ratioP2;P2;SDS_P1;SDS_P2;PMS_P1;PMS_P2;Temp;Humidity;BMP_temperature;BMP_pressure;BME280_temperature;BME280_humidity;BME280_pressure;Samples;Min_cycle;Max_cycle;Signal;HPM_P1;HPM_P2
2022/05/24 00:00:10;;;;;;;67.07;31.83;;;;;;;13.81;100.00;100116.63;4975652;28;20502;-80
2022/05/24 00:02:35;;;;;;;64.57;31.33;;;;;;;13.79;100.00;100110.63;4974307;28;20034;-80
2022/05/24 00:05:00;;;;;;;63.20;31.10;;;;;;;13.79;100.00;100115.84;4969318;28;20030;-80
2022/05/24 00:07:26;;;;;;;64.93;31.63;;;;;;;13.79;100.00;100115.84;4965662;28;20283;-80
2022/05/24 00:09:51;;;;;;;65.72;31.30;;;;;;;13.77;100.00;100115.09;4975502;28;20300;-86
2022/05/24 00:12:16;;;;;;;60.25;29.35;;;;;;;13.77;100.00;100112.47;4963116;28;20023;-86
2022/05/24 00:17:26;;;;;;;62.90;28.77;;;;;;;13.73;100.00;100098.75;4969941;28;20038;-86
2022/05/24 00:19:51;;;;;;;60.33;28.35;;;;;;;13.70;99.71;100092.84;4971427;28;20034;-86
2022/05/24 00:22:17;;;;;;;59.67;28.20;;;;;;;13.66;100.00;100094.75;4983213;28;20041;-86
2022/05/24 00:24:42;;;;;;;57.28;26.83;;;;;;;13.63;99.87;100094.91;4968750;28;20026;-86
2022/05/24 00:27:07;;;;;;;51.00;24.40;;;;;;;13.60;99.68;100100.25;4970771;28;20038;-86
2022/05/24 00:29:32;;;;;;;48.40;22.55;;;;;;;13.56;99.17;100095.28;4976277;28;20285;-86
2022/05/24 00:31:59;;;;;;;44.38;21.23;;;;;;;13.56;99.49;100100.50;4970791;28;20100;-86
2022/05/24 00:34:25;;;;;;;39.88;19.73;;;;;;;13.49;99.87;100110.34;4966480;28;20493;-86
2022/05/24 00:36:50;;;;;;;37.00;19.48;;;;;;;13.43;99.10;100116.69;4971678;28;20138;-86
2022/05/24 00:39:15;;;;;;;37.60;19.20;;;;;;;13.41;99.83;100108.09;4973693;28;20023;-86
2022/05/24 00:41:49;;;;;;;31.83;17.50;;;;;;;13.36;99.00;100102.28;4962787;28;20302;-86
2022/05/24 00:44:25;;;;;;;36.70;18.20;;;;;;;13.31;98.32;100106.84;4958838;28;20321;-86
2022/05/24 00:47:03;;;;;;;35.72;17.52;;;;;;;13.28;99.64;100093.13;4964103;28;20027;-86
2022/05/24 00:49:41;;;;;;;38.70;17.73;;;;;;;13.23;99.69;100101.16;4977007;28;20441;-86
2022/05/24 00:52:13;;;;;;;32.22;17.75;;;;;;;13.18;98.60;100097.06;4973005;28;20031;-86
2022/05/24 00:54:38;;;;;;;34.22;17.35;;;;;;;13.12;98.08;100100.78;4970255;28;20046;-86
2022/05/24 00:57:30;;;;;;;31.90;16.58;;;;;;;13.10;98.86;100105.19;4974102;28;20070;-86
2022/05/24 01:00:12;;;;;;;35.28;17.95;;;;;;;13.07;99.46;100108.78;4970441;28;20035;-87
2022/05/24 01:02:38;;;;;;;33.45;16.73;;;;;;;13.03;99.20;100103.81;4969514;28;20398;-87
2022/05/24 01:05:08;;;;;;;34.22;17.40;;;;;;;12.98;99.15;100110.97;4956755;28;20462;-86
2022/05/24 01:07:36;;;;;;;31.48;16.55;;;;;;;12.97;100.00;100104.06;4956176;28;20140;-86
2022/05/24 01:10:06;;;;;;;34.85;16.65;;;;;;;12.91;99.11;100102.59;4964557;28;20031;-80
2022/05/24 01:12:37;;;;;;;34.65;16.83;;;;;;;12.91;99.65;100097.38;4959344;28;20246;-80
2022/05/24 01:15:05;;;;;;;30.67;15.70;;;;;;;12.89;100.00;100098.38;4970031;28;20042;-80
2022/05/24 01:17:31;;;;;;;29.80;14.95;;;;;;;12.83;99.41;100101.28;4960510;28;20397;-80
2022/05/24 01:19:58;;;;;;;31.52;15.18;;;;;;;12.82;100.00;100091.78;4972519;28;20486;-80
2022/05/24 01:22:56;;;;;;;29.40;14.88;;;;;;;12.78;98.66;100106.66;4968316;28;20461;-80
2022/05/24 01:25:29;;;;;;;27.40;13.10;;;;;;;12.71;98.77;100099.19;4960065;28;20018;-80
2022/05/24 01:27:54;;;;;;;25.20;13.02;;;;;;;12.69;98.40;100098.44;4969791;28;20054;-80
2022/05/24 01:30:20;;;;;;;23.42;12.55;;;;;;;12.65;99.37;100093.34;4967747;28;20512;-80
2022/05/24 01:38:20;;;;;;;28.17;12.77;;;;;;;12.55;97.84;100105.09;4954273;28;20033;-84
2022/05/24 01:40:48;;;;;;;27.13;12.75;;;;;;;12.50;97.80;100114.81;4960565;28;20041;-86
2022/05/24 01:43:19;;;;;;;25.52;12.45;;;;;;;12.48;97.85;100108.84;4962039;28;20454;-86
2022/05/24 01:45:53;;;;;;;21.90;11.63;;;;;;;12.49;98.58;100114.88;4970710;28;20481;-86
2022/05/24 01:48:38;;;;;;;24.80;11.32;;;;;;;12.43;97.46;100107.34;4970715;28;20039;-86
2022/05/24 01:51:06;;;;;;;20.45;10.10;;;;;;;12.38;97.37;100115.34;4980712;28;20030;-87
2022/05/24 01:53:37;;;;;;;20.45;9.85;;;;;;;12.35;97.03;100105.06;4969573;28;20033;-86
2022/05/24 01:56:06;;;;;;;19.10;10.77;;;;;;;12.33;97.88;100109.50;4969526;28;20050;-86
2022/05/24 01:58:35;;;;;;;19.33;10.23;;;;;;;12.29;97.67;100107.94;4965819;28;20049;-86
2022/05/24 02:01:13;;;;;;;22.15;9.80;;;;;;;12.27;96.49;100109.78;4962758;28;20057;-86
2022/05/24 02:03:38;;;;;;;23.55;10.25;;;;;;;12.23;96.89;100095.19;4989242;28;20037;-87
2022/05/24 02:06:19;;;;;;;19.40;10.27;;;;;;;12.20;96.17;100104.00;4962711;28;20027;-87
2022/05/24 02:08:44;;;;;;;18.90;9.32;;;;;;;12.17;97.17;100098.06;4959520;28;20061;-87
2022/05/24 02:11:09;;;;;;;19.42;8.73;;;;;;;12.15;97.32;100099.88;4969011;28;20054;-87
2022/05/24 02:13:39;;;;;;;20.05;9.35;;;;;;;12.11;97.11;100101.78;4963777;28;20362;-87
2022/05/24 02:16:10;;;;;;;19.85;8.30;;;;;;;12.05;95.77;100109.81;4971824;28;20080;-86
2022/05/24 02:18:39;;;;;;;15.45;7.95;;;;;;;12.02;95.77;100122.91;4965899;28;20045;-86
2022/05/24 02:21:05;;;;;;;18.13;8.15;;;;;;;12.01;97.73;100116.03;4970773;28;20037;-86
2022/05/24 02:23:39;;;;;;;18.92;7.80;;;;;;;11.95;96.14;100115.44;4976943;28;20030;-86
2022/05/24 02:26:09;;;;;;;16.63;7.80;;;;;;;11.93;96.20;100117.28;4965447;28;20039;-86
2022/05/24 02:28:35;;;;;;;12.63;7.15;;;;;;;11.92;96.84;100125.97;4966899;28;20019;-86
2022/05/24 02:31:06;;;;;;;16.15;7.13;;;;;;;11.90;97.65;100120.84;4968587;28;20066;-87
2022/05/24 02:33:32;;;;;;;18.00;7.15;;;;;;;11.86;97.01;100119.28;4962301;28;20397;-87
2022/05/24 02:35:58;;;;;;;12.73;6.80;;;;;;;11.86;96.85;100120.13;4971417;28;20528;-87
2022/05/24 02:38:23;;;;;;;15.90;6.63;;;;;;;11.83;96.39;100116.78;4967606;28;20026;-87
2022/05/24 02:43:34;;;;;;;15.90;6.65;;;;;;;11.91;98.58;100114.75;4959390;28;20421;-87
2022/05/24 02:45:59;;;;;;;13.38;6.38;;;;;;;11.90;96.85;100109.59;4971281;28;20035;-87
2022/05/24 02:48:25;;;;;;;17.83;6.63;;;;;;;11.88;97.08;100123.47;4963051;28;20036;-87
2022/05/24 02:50:50;;;;;;;13.63;6.25;;;;;;;11.91;97.59;100113.88;4965579;28;20477;-86
2022/05/24 02:53:15;;;;;;;13.10;5.72;;;;;;;11.86;96.21;100117.53;4970842;28;20379;-87
2022/05/24 02:55:41;;;;;;;12.85;6.00;;;;;;;11.87;96.10;100126.97;4976787;28;20420;-86
2022/05/24 02:58:07;;;;;;;14.63;5.55;;;;;;;11.83;95.28;100127.19;4969453;28;20352;-86
2022/05/24 03:00:32;;;;;;;17.00;6.13;;;;;;;11.85;96.74;100131.41;4969066;28;20425;-87
2022/05/24 03:02:58;;;;;;;10.50;5.22;;;;;;;11.82;95.86;100117.69;4970731;28;20031;-86
2022/05/24 03:05:25;;;;;;;13.07;5.47;;;;;;;11.83;96.14;100117.63;4961836;28;20089;-86
2022/05/24 03:10:36;;;;;;;14.50;4.97;;;;;;;11.78;94.14;100116.13;4953654;28;20045;-86
2022/05/24 03:15:47;;;;;;;11.95;4.35;;;;;;;11.76;94.08;100115.34;4971047;28;20037;-87
2022/05/24 03:18:16;;;;;;;10.93;4.57;;;;;;;11.74;94.56;100119.75;4970424;28;20023;-86
2022/05/24 03:20:42;;;;;;;10.73;4.18;;;;;;;11.70;94.65;100124.19;4967130;28;20118;-86
2022/05/24 03:23:07;;;;;;;10.00;4.63;;;;;;;11.70;95.13;100124.19;4974747;28;20030;-86
2022/05/24 03:25:34;;;;;;;9.07;4.20;;;;;;;11.66;94.11;100125.25;4972664;28;20097;-86
2022/05/24 03:28:00;;;;;;;13.45;4.47;;;;;;;11.64;94.05;100115.81;4970632;28;20078;-86
2022/05/24 03:30:26;;;;;;;14.52;4.70;;;;;;;11.63;94.02;100120.16;4958528;28;20023;-86
2022/05/24 03:32:52;;;;;;;10.27;4.28;;;;;;;11.61;93.90;100121.97;4966501;28;20038;-86
2022/05/24 03:35:18;;;;;;;16.65;4.60;;;;;;;11.60;94.04;100122.03;4962975;28;20029;-87
2022/05/24 03:37:44;;;;;;;9.85;4.35;;;;;;;11.62;93.78;100131.44;4971021;28;20121;-86
2022/05/24 03:40:10;;;;;;;10.63;4.60;;;;;;;11.64;94.15;100123.59;4968874;28;20117;-79
2022/05/24 03:42:36;;;;;;;12.45;5.57;;;;;;;11.64;94.78;100123.59;4956897;28;20041;-80
2022/05/24 03:45:03;;;;;;;11.52;5.07;;;;;;;11.57;94.74;100111.75;4970527;28;20029;-79
2022/05/24 03:47:28;;;;;;;14.23;5.07;;;;;;;11.70;93.94;100121.59;4952760;28;20474;-80
2022/05/24 03:49:53;;;;;;;12.27;4.43;;;;;;;11.72;94.83;100130.19;4983354;28;20038;-79
2022/05/24 03:52:19;;;;;;;12.90;5.32;;;;;;;11.74;93.73;100120.59;4963406;28;20038;-80
2022/05/24 03:54:44;;;;;;;13.60;5.25;;;;;;;11.76;95.20;100123.13;4968891;28;20019;-80
2022/05/24 03:59:53;;;;;;;16.45;5.90;;;;;;;11.82;95.31;100144.50;4959921;28;20046;-79
2022/05/24 04:02:19;;;;;;;14.63;5.37;;;;;;;11.83;94.63;100154.00;4962360;28;20035;-79
2022/05/24 04:04:44;;;;;;;17.65;6.05;;;;;;;11.85;94.56;100159.97;4970255;28;20276;-79
2022/05/24 04:07:09;;;;;;;17.37;6.67;;;;;;;11.88;95.13;100149.44;4979967;28;20050;-79
2022/05/24 04:09:35;;;;;;;20.23;6.53;;;;;;;11.89;93.36;100155.50;4969652;28;20286;-80
2022/05/24 04:12:02;;;;;;;15.60;6.50;;;;;;;11.90;93.94;100177.97;4964196;28;20114;-79
2022/05/24 04:14:29;;;;;;;19.23;7.05;;;;;;;11.93;92.92;100188.25;4963897;28;20110;-80
2022/05/24 04:16:55;;;;;;;15.70;7.30;;;;;;;11.97;94.04;100191.56;4969873;28;21393;-79
2022/05/24 04:19:20;;;;;;;17.95;6.90;;;;;;;11.98;94.33;100186.31;4968840;28;20035;-80
2022/05/24 04:21:45;;;;;;;20.27;7.68;;;;;;;12.03;94.81;100183.50;4983395;28;20066;-79
2022/05/24 04:24:11;;;;;;;15.70;7.30;;;;;;;12.04;93.48;100187.81;4955662;28;20038;-79
2022/05/24 04:26:36;;;;;;;17.58;7.20;;;;;;;12.07;92.64;100183.34;4963197;28;20321;-79
2022/05/24 04:29:01;;;;;;;21.58;7.53;;;;;;;12.09;93.68;100163.31;4957830;28;20023;-79
2022/05/24 04:31:27;;;;;;;16.27;7.47;;;;;;;12.07;93.71;100146.13;4980639;28;20038;-80
2022/05/24 04:33:52;;;;;;;21.50;8.00;;;;;;;12.05;92.31;100143.59;4971222;28;20041;-79
2022/05/24 04:36:17;;;;;;;16.10;7.40;;;;;;;12.04;92.52;100154.88;4965135;28;20486;-79
2022/05/24 04:38:42;;;;;;;15.73;7.57;;;;;;;12.05;92.64;100166.97;4968166;28;20291;-79
2022/05/24 04:43:52;;;;;;;;;;;;;;;12.12;92.54;100193.53;4974276;28;20836;-80
2022/05/24 04:46:18;;;;;;;13.47;5.77;;;;;;;12.10;92.30;100200.53;4967158;28;19914;-80
2022/05/24 04:48:43;;;;;;;13.90;6.97;;;;;;;12.11;93.11;100212.63;4985577;28;20030;-80
2022/05/24 04:51:08;;;;;;;19.97;7.10;;;;;;;12.12;92.50;100203.94;4965104;28;20481;-80
2022/05/24 04:53:33;;;;;;;16.07;6.77;;;;;;;12.10;92.20;100193.59;4969266;28;20286;-80
2022/05/24 04:55:59;;;;;;;13.07;6.28;;;;;;;12.09;91.59;100196.25;4969256;28;20783;-80
2022/05/24 04:58:24;;;;;;;14.48;6.43;;;;;;;12.06;91.95;100194.66;4975548;28;20413;-80
2022/05/24 05:00:50;;;;;;;13.95;5.55;;;;;;;12.06;92.27;100186.00;4957108;28;20054;-80
2022/05/24 05:03:20;;;;;;;12.45;5.72;;;;;;;12.05;92.11;100211.13;4970791;28;20434;-80
2022/05/24 05:05:49;;;;;;;11.75;5.53;;;;;;;12.09;95.13;100204.03;4966578;28;20027;-80
2022/05/24 05:08:14;;;;;;;14.52;5.10;;;;;;;12.04;92.08;100217.22;4980301;28;20450;-80
2022/05/24 05:10:40;;;;;;;14.27;5.40;;;;;;;12.04;92.40;100224.16;4963858;28;20493;-80
2022/05/24 05:13:06;;;;;;;12.65;5.25;;;;;;;12.07;93.95;100227.50;4978031;28;20461;-80
2022/05/24 05:15:34;;;;;;;11.57;4.72;;;;;;;12.13;92.08;100249.78;4967632;28;20027;-80
2022/05/24 05:18:04;;;;;;;14.20;5.40;;;;;;;12.13;91.88;100249.78;4963305;28;20087;-80
2022/05/24 05:20:31;;;;;;;9.57;4.55;;;;;;;12.16;92.21;100250.50;4965126;28;20058;-81
2022/05/24 05:22:56;;;;;;;12.82;4.82;;;;;;;12.17;91.56;100254.81;4975142;28;20033;-80
2022/05/24 05:25:22;;;;;;;14.00;4.80;;;;;;;12.20;92.07;100257.28;4972384;28;20034;-80
2022/05/24 05:27:47;;;;;;;10.32;4.55;;;;;;;12.18;91.31;100250.47;4971836;28;20042;-80
2022/05/24 05:32:57;;;;;;;11.18;4.13;;;;;;;12.21;90.44;100234.75;4972070;28;20280;-80
2022/05/24 05:35:22;;;;;;;13.60;4.47;;;;;;;12.21;90.17;100245.16;4973712;28;20030;-80
2022/05/24 05:37:48;;;;;;;9.90;4.30;;;;;;;12.25;90.32;100246.72;4964730;28;20781;-80
2022/05/24 05:40:14;;;;;;;11.18;4.50;;;;;;;12.24;90.11;100245.00;4977636;28;20304;-80
2022/05/24 05:42:39;;;;;;;11.98;4.50;;;;;;;12.24;89.92;100234.63;4977176;28;20018;-80
2022/05/24 05:45:06;;;;;;;11.80;4.40;;;;;;;12.24;90.27;100229.41;4988663;28;20110;-80
2022/05/24 05:47:32;;;;;;;9.73;4.20;;;;;;;12.25;89.84;100231.13;4970004;28;20497;-80
2022/05/24 05:49:57;;;;;;;12.90;4.30;;;;;;;12.26;90.18;100230.22;4955336;28;20046;-79
2022/05/24 05:52:22;;;;;;;12.13;4.45;;;;;;;12.28;89.37;100234.41;4979948;28;20033;-80
2022/05/24 05:54:47;;;;;;;8.10;4.23;;;;;;;12.31;88.86;100248.22;4978966;28;20059;-80
2022/05/24 05:57:13;;;;;;;12.10;4.40;;;;;;;12.32;89.82;100250.75;4964207;28;20302;-80
2022/05/24 05:59:38;;;;;;;12.68;4.72;;;;;;;12.35;88.80;100244.59;4970890;28;20297;-80
2022/05/24 06:02:05;;;;;;;15.27;4.60;;;;;;;12.39;88.98;100251.34;4971810;28;20065;-80
2022/05/24 06:04:31;;;;;;;10.10;4.75;;;;;;;12.45;87.61;100275.34;4971820;28;20061;-80
2022/05/24 06:06:56;;;;;;;10.25;4.30;;;;;;;12.48;88.77;100279.56;4968334;28;20077;-79
2022/05/24 06:09:21;;;;;;;10.57;4.40;;;;;;;12.50;88.58;100286.38;4977968;28;20065;-79
2022/05/24 06:11:47;;;;;;;8.37;4.27;;;;;;;12.53;87.34;100294.06;4978962;28;20285;-80
2022/05/24 06:14:12;;;;;;;14.07;4.18;;;;;;;12.49;88.04;100292.50;4969996;28;20295;-80
2022/05/24 06:16:38;;;;;;;9.40;3.80;;;;;;;12.51;87.28;100301.09;4961352;28;20033;-80
2022/05/24 06:19:04;;;;;;;10.98;4.00;;;;;;;12.55;87.35;100296.63;4972564;28;20041;-80
2022/05/24 06:21:33;;;;;;;8.55;3.28;;;;;;;12.59;86.58;100299.03;4967241;28;20401;-81
2022/05/24 06:24:00;;;;;;;9.88;4.03;;;;;;;12.63;87.16;100299.72;4981718;28;20027;-80
2022/05/24 06:26:25;;;;;;;10.77;4.03;;;;;;;12.68;85.98;100295.22;4970792;28;20031;-80
2022/05/24 06:28:50;;;;;;;11.27;5.73;;;;;;;12.69;85.92;100289.09;4971595;28;20454;-80
2022/05/24 06:31:15;;;;;;;10.87;5.10;;;;;;;12.75;85.17;100293.19;4970021;28;20281;-81
2022/05/24 06:33:41;;;;;;;12.40;5.10;;;;;;;12.80;85.72;100294.69;4964047;28;20649;-80
2022/05/24 06:36:06;;;;;;;10.07;4.70;;;;;;;12.89;84.62;100296.06;4970744;28;20285;-81
2022/05/24 06:38:32;;;;;;;10.63;4.90;;;;;;;12.90;83.85;100296.00;4971538;28;20320;-80
2022/05/24 06:40:57;;;;;;;13.38;5.35;;;;;;;12.98;84.14;100303.47;4970017;28;20118;-80
2022/05/24 06:43:22;;;;;;;12.43;4.60;;;;;;;13.10;84.27;100302.13;4965038;28;20546;-80
2022/05/24 06:45:47;;;;;;;10.50;4.60;;;;;;;13.21;83.55;100313.78;4970253;28;20058;-78
2022/05/24 06:48:13;;;;;;;10.93;4.73;;;;;;;13.36;84.20;100317.50;4969823;28;20304;-79
2022/05/24 06:50:40;;;;;;;8.38;4.20;;;;;;;13.46;82.75;100318.78;4982064;28;20305;-79
2022/05/24 06:53:06;;;;;;;11.45;4.07;;;;;;;13.55;82.31;100325.34;4978411;28;20486;-79
2022/05/24 06:55:31;;;;;;;10.00;4.07;;;;;;;13.73;83.30;100330.56;4975754;28;20050;-80
2022/05/24 06:57:57;;;;;;;6.85;4.07;;;;;;;14.02;82.40;100337.06;4959264;28;20490;-78
2022/05/24 07:03:09;;;;;;;8.00;3.80;;;;;;;14.22;79.13;100351.78;4959238;28;20043;-79
2022/05/24 07:05:35;;;;;;;8.55;3.55;;;;;;;14.31;80.03;100350.53;4962243;28;20050;-79
2022/05/24 07:08:01;;;;;;;11.05;3.50;;;;;;;14.57;81.99;100351.00;4970309;28;20026;-79
2022/05/24 07:10:31;;;;;;;8.15;3.45;;;;;;;14.77;78.49;100359.63;4968388;28;20038;-79
2022/05/24 07:13:09;;;;;;;9.48;3.78;;;;;;;15.04;77.00;100358.28;4963913;28;20113;-79
2022/05/24 07:15:36;;;;;;;7.57;3.35;;;;;;;15.18;73.96;100362.81;4969073;28;20038;-79
2022/05/24 07:18:02;;;;;;;9.88;3.40;;;;;;;15.06;71.82;100368.66;4970905;28;20031;-80
2022/05/24 07:20:28;;;;;;;9.82;3.53;;;;;;;14.95;72.57;100377.84;4985643;28;20086;-86
2022/05/24 07:22:57;;;;;;;6.10;3.00;;;;;;;14.91;72.74;100386.75;4970451;28;20053;-85
2022/05/24 07:25:22;;;;;;;6.50;3.50;;;;;;;14.89;72.94;100380.75;4974381;28;20038;-85
2022/05/24 07:27:48;;;;;;;10.13;3.95;;;;;;;14.91;74.10;100376.31;4970633;28;20118;-86
2022/05/24 07:30:13;;;;;;;10.48;5.05;;;;;;;14.83;70.73;100381.06;4970450;28;20027;-87
2022/05/24 07:32:39;;;;;;;8.55;5.22;;;;;;;14.71;71.16;100380.81;4969109;28;20443;-86
2022/05/24 07:35:05;;;;;;;7.68;5.25;;;;;;;14.67;73.18;100381.88;4978085;28;20079;-86
2022/05/24 07:37:31;;;;;;;9.05;5.90;;;;;;;14.97;69.86;100383.84;4970308;28;20096;-85
2022/05/24 07:48:09;;;;;;;11.38;7.78;;;;;;;16.51;70.30;100383.63;4969991;28;20041;-85
2022/05/24 07:50:34;;;;;;;10.27;7.15;;;;;;;17.22;66.35;100384.78;4970470;28;20053;-85
2022/05/24 07:53:00;;;;;;;10.43;6.60;;;;;;;17.69;62.93;100383.75;4970226;28;20509;-87
2022/05/24 07:55:25;;;;;;;10.20;6.17;;;;;;;18.21;61.56;100385.81;4965978;28;20063;-86
2022/05/24 07:57:51;;;;;;;9.70;6.57;;;;;;;18.49;60.32;100388.41;4970554;28;20718;-85
2022/05/24 08:00:16;;;;;;;10.43;6.57;;;;;;;18.12;61.09;100388.09;4973901;28;20453;-86
2022/05/24 08:02:42;;;;;;;8.25;6.35;;;;;;;17.80;61.26;100378.72;4973430;28;20034;-86
2022/05/24 08:05:08;;;;;;;10.73;6.82;;;;;;;18.46;61.51;100389.44;4984210;28;20022;-85
2022/05/24 08:07:33;;;;;;;9.63;6.82;;;;;;;19.44;59.26;100383.03;4982911;28;20035;-87
2022/05/24 08:09:58;;;;;;;7.88;6.72;;;;;;;19.97;57.84;100380.22;4974135;28;20015;-86
2022/05/24 08:12:24;;;;;;;8.67;6.97;;;;;;;19.83;53.11;100382.97;4973840;28;20030;-87
2022/05/24 08:14:49;;;;;;;7.57;6.03;;;;;;;19.28;55.44;100386.69;4980822;28;20294;-86
2022/05/24 08:17:14;;;;;;;9.35;5.72;;;;;;;18.81;57.01;100381.94;4973648;28;20034;-86
2022/05/24 08:19:40;;;;;;;8.25;5.10;;;;;;;18.50;58.16;100390.91;4973761;28;20034;-86
2022/05/24 08:22:06;;;;;;;8.27;5.32;;;;;;;18.51;60.48;100395.22;4973664;28;20026;-86
2022/05/24 08:24:32;;;;;;;9.43;5.57;;;;;;;18.71;59.02;100403.63;4972431;28;20081;-86
2022/05/24 08:26:58;;;;;;;9.07;5.53;;;;;;;18.45;57.84;100395.59;4973550;28;20030;-86
2022/05/24 08:29:23;;;;;;;8.73;6.20;;;;;;;18.04;57.18;100405.22;4984255;28;20037;-81
2022/05/24 08:31:49;;;;;;;10.70;6.32;;;;;;;17.72;57.23;100407.19;4973493;28;20027;-80
2022/05/24 08:34:16;;;;;;;8.85;6.30;;;;;;;17.49;61.34;100402.44;4973274;28;20030;-80
2022/05/24 08:36:41;;;;;;;10.57;6.50;;;;;;;17.92;64.84;100419.09;4973280;28;20027;-80
2022/05/24 08:39:07;;;;;;;9.90;6.07;;;;;;;18.48;59.23;100418.22;4971962;28;20023;-81
2022/05/24 08:42:06;;;;;;;11.75;6.35;;;;;;;19.07;59.29;100427.53;4975301;28;20364;-82
2022/05/24 08:50:11;;;;;;;11.90;6.80;;;;;;;17.98;58.07;100423.97;4973105;28;20026;-80
2022/05/24 08:52:41;;;;;;;11.18;7.95;;;;;;;17.57;57.47;100442.13;4972975;28;20346;-80
2022/05/24 08:55:10;;;;;;;12.73;7.78;;;;;;;17.25;59.91;100447.50;4973010;28;20506;-80
2022/05/24 08:57:39;;;;;;;11.57;8.20;;;;;;;16.91;61.74;100445.09;4973849;28;20493;-80
2022/05/24 09:00:13;;;;;;;10.35;7.93;;;;;;;16.56;61.47;100452.25;4971727;28;20031;-80
2022/05/24 09:02:44;;;;;;;11.70;8.20;;;;;;;16.19;65.90;100455.97;4971291;28;20033;-80
2022/05/24 09:05:17;;;;;;;8.15;6.68;;;;;;;15.83;63.77;100461.34;4972923;28;20325;-79
2022/05/24 09:08:13;;;;;;;10.38;6.75;;;;;;;15.58;65.09;100477.44;4972591;28;20262;-79
2022/05/24 09:11:05;;;;;;;9.32;6.38;;;;;;;15.55;68.20;100482.00;4971591;28;20529;-79
2022/05/24 09:14:01;;;;;;;10.60;6.25;;;;;;;15.88;67.32;100474.22;4972843;28;20042;-79
2022/05/24 09:17:04;;;;;;;7.90;6.45;;;;;;;16.24;65.29;100471.44;4972724;28;20418;-80
2022/05/24 09:19:35;;;;;;;10.15;6.82;;;;;;;16.30;65.48;100473.75;4970370;28;20125;-80
2022/05/24 09:22:02;;;;;;;9.07;6.95;;;;;;;16.37;61.46;100469.88;4972695;28;20031;-80
2022/05/24 09:24:31;;;;;;;10.23;6.47;;;;;;;16.46;61.59;100487.66;4986308;28;20035;-81
2022/05/24 09:27:18;;;;;;;9.63;6.22;;;;;;;16.46;61.63;100488.53;4972445;28;20118;-80
2022/05/24 09:29:52;;;;;;;7.82;5.30;;;;;;;16.23;61.91;100501.16;4970813;28;20105;-80
2022/05/24 09:32:18;;;;;;;;;;;;;;;16.19;63.43;100496.06;4972400;28;20031;-79
2022/05/24 09:34:44;;;;;;;10.50;6.35;;;;;;;15.99;61.83;100500.63;4970960;28;19925;-80
2022/05/24 09:37:26;;;;;;;10.75;6.43;;;;;;;16.06;64.26;100508.09;4972103;28;20085;-79
2022/05/24 09:39:58;;;;;;;8.68;6.13;;;;;;;16.48;63.38;100512.84;4975780;28;20019;-79
2022/05/24 09:42:31;;;;;;;7.55;5.78;;;;;;;17.17;61.87;100517.81;4971984;28;20041;-79
2022/05/24 09:45:12;;;;;;;7.68;6.30;;;;;;;17.44;60.11;100518.00;4972474;28;20027;-79
2022/05/24 09:47:43;;;;;;;9.68;7.10;;;;;;;17.36;59.32;100528.06;4972330;28;20041;-79
2022/05/24 09:50:26;;;;;;;8.82;7.25;;;;;;;17.10;60.31;100526.94;4972151;28;20022;-80
2022/05/24 09:53:06;;;;;;;12.38;8.10;;;;;;;16.74;60.41;100534.19;4971686;28;20229;-79
2022/05/24 09:56:29;;;;;;;10.95;7.97;;;;;;;16.42;59.91;100530.63;4974537;28;20077;-80
2022/05/24 09:58:58;;;;;;;10.50;7.63;;;;;;;16.22;61.35;100539.53;4969367;28;20121;-85
2022/05/24 10:01:30;;;;;;;8.35;6.65;;;;;;;16.83;59.14;100536.31;4969043;28;20607;-85
2022/05/24 10:04:10;;;;;;;7.90;6.57;;;;;;;17.31;60.96;100538.84;4971165;28;20441;-85
2022/05/24 10:06:36;;;;;;;8.98;7.10;;;;;;;17.68;57.79;100537.59;4972018;28;20018;-86
2022/05/24 10:09:18;;;;;;;9.95;7.25;;;;;;;18.00;56.99;100527.84;4977953;28;20177;-85
2022/05/24 10:11:57;;;;;;;8.63;7.20;;;;;;;18.41;56.91;100528.00;4977434;28;20118;-85
2022/05/24 10:14:31;;;;;;;10.75;8.05;;;;;;;18.84;55.02;100523.56;4971738;28;20042;-86
2022/05/24 10:17:02;;;;;;;;;;;;;;;18.96;57.22;100524.59;4971868;28;20378;-86
2022/05/24 10:19:42;;;;;;;11.55;8.57;;;;;;;18.62;56.52;100538.97;4971533;28;19964;-86
2022/05/24 10:22:20;;;;;;;10.43;9.20;;;;;;;18.12;55.85;100542.00;4969493;28;20478;-85
2022/05/24 10:25:21;;;;;;;11.35;8.80;;;;;;;17.59;57.18;100558.22;4974661;28;20105;-85
2022/05/24 10:27:58;;;;;;;12.38;11.07;;;;;;;17.08;59.79;100556.75;4971370;28;20118;-85
2022/05/24 10:30:39;;;;;;;12.85;11.27;;;;;;;16.86;60.49;100562.31;5002632;28;20031;-86
2022/05/24 10:39:05;;;;;;;9.23;7.35;;;;;;;16.54;60.15;100577.94;4972880;28;20042;-86
2022/05/24 10:41:43;;;;;;;8.80;7.05;;;;;;;16.42;59.99;100581.19;4977086;28;20026;-85
2022/05/24 10:44:13;;;;;;;7.72;5.70;;;;;;;16.39;59.72;100594.41;4971272;28;20058;-86
2022/05/24 10:46:44;;;;;;;6.20;4.43;;;;;;;16.33;59.18;100594.75;4970790;28;20026;-86
2022/05/24 10:49:33;;;;;;;5.18;4.53;;;;;;;16.31;60.67;100591.34;4971145;28;20485;-86
2022/05/24 10:52:15;;;;;;;6.43;4.05;;;;;;;16.29;62.83;100594.97;4969542;28;20027;-85
2022/05/24 10:54:48;;;;;;;6.60;3.58;;;;;;;16.17;63.58;100594.66;4979838;28;20030;-85
2022/05/24 10:57:19;;;;;;;6.65;3.42;;;;;;;16.42;64.09;100591.66;4970554;28;20039;-85
2022/05/24 10:59:54;;;;;;;5.30;3.42;;;;;;;16.77;62.42;100595.06;4970780;28;20023;-80
2022/05/24 11:02:28;;;;;;;4.85;3.60;;;;;;;16.71;61.31;100592.78;4970886;28;20293;-80
2022/05/24 11:05:01;;;;;;;4.80;3.92;;;;;;;16.55;61.07;100589.25;4970860;28;20027;-80
2022/05/24 11:07:30;;;;;;;6.50;3.80;;;;;;;16.38;60.59;100597.09;4970748;28;20034;-80
2022/05/24 11:10:08;;;;;;;5.30;3.70;;;;;;;16.54;62.75;100584.94;4981958;28;20030;-80
2022/05/24 11:12:40;;;;;;;6.18;3.75;;;;;;;16.90;63.18;100583.03;4970735;28;20050;-80
2022/05/24 11:15:19;;;;;;;5.90;3.50;;;;;;;17.32;61.80;100574.59;4970611;28;20029;-80
2022/05/24 11:17:46;;;;;;;5.90;3.28;;;;;;;17.52;58.19;100583.94;4978622;28;20112;-81
2022/05/24 11:20:13;;;;;;;6.30;3.13;;;;;;;17.49;56.78;100580.63;4969533;28;20038;-81
2022/05/24 11:23:15;;;;;;;6.30;3.50;;;;;;;17.55;58.88;100583.75;4965553;28;20031;-80
2022/05/24 11:25:46;;;;;;;6.57;3.58;;;;;;;17.71;58.05;100592.47;4961151;28;20069;-80
2022/05/24 11:28:27;;;;;;;4.40;3.40;;;;;;;17.90;57.71;100584.38;4970254;28;20034;-80
2022/05/24 11:30:54;;;;;;;5.85;3.95;;;;;;;18.05;55.78;100575.63;4970883;28;20027;-81
2022/05/24 11:33:35;;;;;;;9.10;4.13;;;;;;;18.29;58.79;100585.59;4980057;28;20037;-80
2022/05/24 11:36:21;;;;;;;7.47;5.70;;;;;;;18.42;57.32;100582.13;4976225;28;20037;-80
2022/05/24 11:38:48;;;;;;;7.13;4.85;;;;;;;18.43;54.27;100588.22;4969104;28;20031;-85
2022/05/24 11:41:31;;;;;;;4.35;3.58;;;;;;;18.37;55.90;100601.72;4970201;28;20039;-85
2022/05/24 11:43:59;;;;;;;4.75;2.58;;;;;;;18.12;52.88;100595.31;4969272;28;20398;-85
2022/05/24 11:46:34;;;;;;;3.22;2.30;;;;;;;17.81;54.27;100610.31;4970263;28;21030;-86
2022/05/24 11:49:03;;;;;;;2.88;2.25;;;;;;;17.45;55.59;100621.91;4977974;28;20402;-85
2022/05/24 11:51:28;;;;;;;4.50;2.70;;;;;;;17.36;55.84;100611.94;4969902;28;20027;-85
2022/05/24 11:53:53;;;;;;;4.00;2.80;;;;;;;17.49;58.96;100612.94;4970352;28;20090;-85
2022/05/24 11:56:21;;;;;;;4.70;2.90;;;;;;;17.71;57.59;100605.59;4970053;28;20064;-85
2022/05/24 11:58:49;;;;;;;7.18;4.05;;;;;;;17.87;57.07;100610.81;4968180;28;20033;-85
2022/05/24 12:01:15;;;;;;;6.38;4.57;;;;;;;18.06;55.65;100613.22;4977074;28;20039;-86
2022/05/24 12:09:58;;;;;;;5.30;2.88;;;;;;;17.89;53.54;100614.16;4970504;28;20077;-84
2022/05/24 12:12:46;;;;;;;3.47;2.63;;;;;;;17.79;53.73;100627.91;4962405;28;20031;-85
2022/05/24 12:15:11;;;;;;;5.22;3.10;;;;;;;17.82;53.29;100617.22;4971141;28;20093;-85
2022/05/24 12:17:36;;;;;;;4.00;2.70;;;;;;;17.94;55.62;100617.41;4967116;28;20026;-84
2022/05/24 12:20:04;;;;;;;4.40;2.80;;;;;;;18.02;53.03;100617.78;4970287;28;20034;-85
2022/05/24 12:22:33;;;;;;;4.88;2.80;;;;;;;18.18;51.69;100622.97;4968456;28;20087;-85